sensor_id;sensor_type;location;lat;lon;timestamp;temperature;humidity
26721;HTU21D;15950;51.112;6.966;2023-11-19T00:00:24;10.37;99.98
26721;HTU21D;15950;51.112;6.966;2023-11-19T00:03:24;10.31;100.2
26721;HTU21D;15950;51.112;6.966;2023-11-19T00:06:24;10.25;100.4
26721;HTU21D;15950;51.112;6.966;2023-11-19T00:09:24;10.19;101.0
26721;HTU21D;15950;51.112;6.966;2023-11-19T00:12:24;10.23;101.2
26721;HTU21D;15950;51.112;6.966;2023-11-19T00:15:24;10.17;101.6
26721;HTU21D;15950;51.112;6.966;2023-11-19T00:18:24;10.18;101.7
26721;HTU21D;15950;51.112;6.966;2023-11-19T00:21:24;10.22;101.7
26721;HTU21D;15950;51.112;6.966;2023-11-19T00:24:24;10.19;101.6
26721;HTU21D;15950;51.112;6.966;2023-11-19T00:27:24;10.29;101.5
26721;HTU21D;15950;51.112;6.966;2023-11-19T00:30:24;10.31;101.5
26721;HTU21D;15950;51.112;6.966;2023-11-19T00:33:24;10.31;101.8
26721;HTU21D;15950;51.112;6.966;2023-11-19T00:36:24;10.38;101.5
26721;HTU21D;15950;51.112;6.966;2023-11-19T00:39:24;10.34;101.8
26721;HTU21D;15950;51.112;6.966;2023-11-19T00:42:24;10.34;101.8
26721;HTU21D;15950;51.112;6.966;2023-11-19T00:45:24;10.45;101.4
26721;HTU21D;15950;51.112;6.966;2023-11-19T00:48:24;10.38;101.7
26721;HTU21D;15950;51.112;6.966;2023-11-19T00:51:24;10.38;101.6
26721;HTU21D;15950;51.112;6.966;2023-11-19T00:54:24;10.45;101.7
26721;HTU21D;15950;51.112;6.966;2023-11-19T00:57:24;10.41;101.7
26721;HTU21D;15950;51.112;6.966;2023-11-19T01:00:24;10.46;101.8
26721;HTU21D;15950;51.112;6.966;2023-11-19T01:03:24;10.46;102.1
26721;HTU21D;15950;51.112;6.966;2023-11-19T01:06:28;10.57;101.8
26721;HTU21D;15950;51.112;6.966;2023-11-19T01:09:24;10.51;102.0
26721;HTU21D;15950;51.112;6.966;2023-11-19T01:12:24;10.59;102.1
26721;HTU21D;15950;51.112;6.966;2023-11-19T01:15:24;10.63;102.3
26721;HTU21D;15950;51.112;6.966;2023-11-19T01:18:24;10.56;102.5
26721;HTU21D;15950;51.112;6.966;2023-11-19T01:21:24;10.60;102.7
26721;HTU21D;15950;51.112;6.966;2023-11-19T01:24:24;10.67;102.6
26721;HTU21D;15950;51.112;6.966;2023-11-19T01:27:24;10.70;102.7
26721;HTU21D;15950;51.112;6.966;2023-11-19T01:30:24;10.75;102.5
26721;HTU21D;15950;51.112;6.966;2023-11-19T01:33:24;10.77;102.5
26721;HTU21D;15950;51.112;6.966;2023-11-19T01:36:24;10.87;102.4
26721;HTU21D;15950;51.112;6.966;2023-11-19T01:39:24;10.94;102.4
26721;HTU21D;15950;51.112;6.966;2023-11-19T01:42:24;10.92;102.7
26721;HTU21D;15950;51.112;6.966;2023-11-19T01:45:28;10.99;102.8
26721;HTU21D;15950;51.112;6.966;2023-11-19T01:48:24;11.06;103.0
26721;HTU21D;15950;51.112;6.966;2023-11-19T01:51:24;11.10;103.0
26721;HTU21D;15950;51.112;6.966;2023-11-19T01:54:25;11.06;103.4
26721;HTU21D;15950;51.112;6.966;2023-11-19T01:57:24;11.23;102.9
26721;HTU21D;15950;51.112;6.966;2023-11-19T02:00:24;11.34;103.2
26721;HTU21D;15950;51.112;6.966;2023-11-19T02:03:25;11.40;103.2
26721;HTU21D;15950;51.112;6.966;2023-11-19T02:06:25;11.58;103.3
26721;HTU21D;15950;51.112;6.966;2023-11-19T02:09:24;11.61;103.3
26721;HTU21D;15950;51.112;6.966;2023-11-19T02:12:24;11.68;103.2
26721;HTU21D;15950;51.112;6.966;2023-11-19T02:15:24;11.77;103.3
26721;HTU21D;15950;51.112;6.966;2023-11-19T02:18:25;11.85;103.1
26721;HTU21D;15950;51.112;6.966;2023-11-19T02:21:24;11.89;103.1
26721;HTU21D;15950;51.112;6.966;2023-11-19T02:24:27;12.00;102.8
26721;HTU21D;15950;51.112;6.966;2023-11-19T02:30:24;12.23;101.6
26721;HTU21D;15950;51.112;6.966;2023-11-19T02:33:24;12.26;101.4
26721;HTU21D;15950;51.112;6.966;2023-11-19T02:36:24;12.30;101.2
26721;HTU21D;15950;51.112;6.966;2023-11-19T02:39:24;12.25;101.3
26721;HTU21D;15950;51.112;6.966;2023-11-19T02:42:24;12.20;101.2
26721;HTU21D;15950;51.112;6.966;2023-11-19T02:45:25;12.42;101.0
26721;HTU21D;15950;51.112;6.966;2023-11-19T02:48:24;12.24;100.8
26721;HTU21D;15950;51.112;6.966;2023-11-19T02:51:24;12.32;100.9
26721;HTU21D;15950;51.112;6.966;2023-11-19T02:54:24;12.19;101.0
26721;HTU21D;15950;51.112;6.966;2023-11-19T02:57:24;12.27;101.1
26721;HTU21D;15950;51.112;6.966;2023-11-19T03:00:24;12.32;100.7
26721;HTU21D;15950;51.112;6.966;2023-11-19T03:03:25;12.20;101.0
26721;HTU21D;15950;51.112;6.966;2023-11-19T03:06:24;12.29;100.8
26721;HTU21D;15950;51.112;6.966;2023-11-19T03:09:24;12.21;101.0
26721;HTU21D;15950;51.112;6.966;2023-11-19T03:12:24;12.31;100.9
26721;HTU21D;15950;51.112;6.966;2023-11-19T03:15:24;12.32;100.6
26721;HTU21D;15950;51.112;6.966;2023-11-19T03:18:24;12.37;100.4
26721;HTU21D;15950;51.112;6.966;2023-11-19T03:21:28;12.22;100.4
26721;HTU21D;15950;51.112;6.966;2023-11-19T03:24:24;12.37;100.2
26721;HTU21D;15950;51.112;6.966;2023-11-19T03:27:24;12.44;99.83
26721;HTU21D;15950;51.112;6.966;2023-11-19T03:30:24;12.27;99.87
26721;HTU21D;15950;51.112;6.966;2023-11-19T03:33:24;12.46;99.31
26721;HTU21D;15950;51.112;6.966;2023-11-19T03:36:24;12.40;99.29
26721;HTU21D;15950;51.112;6.966;2023-11-19T03:39:24;12.40;99.00
26721;HTU21D;15950;51.112;6.966;2023-11-19T03:42:24;12.39;98.88
26721;HTU21D;15950;51.112;6.966;2023-11-19T03:45:24;12.45;98.63
26721;HTU21D;15950;51.112;6.966;2023-11-19T03:48:24;12.36;98.61
26721;HTU21D;15950;51.112;6.966;2023-11-19T03:51:24;12.37;98.45
26721;HTU21D;15950;51.112;6.966;2023-11-19T03:54:24;12.39;98.47
26721;HTU21D;15950;51.112;6.966;2023-11-19T03:57:24;12.45;98.19
26721;HTU21D;15950;51.112;6.966;2023-11-19T04:00:24;12.44;97.45
26721;HTU21D;15950;51.112;6.966;2023-11-19T04:03:24;12.41;97.08
26721;HTU21D;15950;51.112;6.966;2023-11-19T04:06:26;12.49;96.34
26721;HTU21D;15950;51.112;6.966;2023-11-19T04:09:24;12.51;96.07
26721;HTU21D;15950;51.112;6.966;2023-11-19T04:12:24;12.51;96.18
26721;HTU21D;15950;51.112;6.966;2023-11-19T04:15:24;12.42;96.39
26721;HTU21D;15950;51.112;6.966;2023-11-19T04:18:24;12.44;96.29
26721;HTU21D;15950;51.112;6.966;2023-11-19T04:21:24;12.48;96.12
26721;HTU21D;15950;51.112;6.966;2023-11-19T04:24:24;12.40;96.04
26721;HTU21D;15950;51.112;6.966;2023-11-19T04:27:24;12.47;95.81
26721;HTU21D;15950;51.112;6.966;2023-11-19T04:30:24;12.43;96.29
26721;HTU21D;15950;51.112;6.966;2023-11-19T04:33:24;12.50;95.81
26721;HTU21D;15950;51.112;6.966;2023-11-19T04:36:24;12.44;96.20
26721;HTU21D;15950;51.112;6.966;2023-11-19T04:39:24;12.37;96.73
26721;HTU21D;15950;51.112;6.966;2023-11-19T04:42:24;12.44;96.49
26721;HTU21D;15950;51.112;6.966;2023-11-19T04:45:24;12.41;96.52
26721;HTU21D;15950;51.112;6.966;2023-11-19T04:48:24;12.36;96.75
26721;HTU21D;15950;51.112;6.966;2023-11-19T04:51:24;12.34;96.55
26721;HTU21D;15950;51.112;6.966;2023-11-19T04:54:24;12.34;96.44
26721;HTU21D;15950;51.112;6.966;2023-11-19T04:57:24;12.42;96.02
26721;HTU21D;15950;51.112;6.966;2023-11-19T05:00:24;12.41;95.85
26721;HTU21D;15950;51.112;6.966;2023-11-19T05:03:24;12.44;95.33
26721;HTU21D;15950;51.112;6.966;2023-11-19T05:06:26;12.38;95.24
26721;HTU21D;15950;51.112;6.966;2023-11-19T05:09:24;12.42;95.06
26721;HTU21D;15950;51.112;6.966;2023-11-19T05:12:24;12.48;94.65
26721;HTU21D;15950;51.112;6.966;2023-11-19T05:15:24;12.33;94.85
26721;HTU21D;15950;51.112;6.966;2023-11-19T05:18:24;12.37;94.77
26721;HTU21D;15950;51.112;6.966;2023-11-19T05:21:24;12.44;94.54
26721;HTU21D;15950;51.112;6.966;2023-11-19T05:24:24;12.43;94.45
26721;HTU21D;15950;51.112;6.966;2023-11-19T05:27:24;12.36;94.41
26721;HTU21D;15950;51.112;6.966;2023-11-19T05:30:24;12.32;94.69
26721;HTU21D;15950;51.112;6.966;2023-11-19T05:33:24;12.30;94.44
26721;HTU21D;15950;51.112;6.966;2023-11-19T05:36:24;12.21;93.98
26721;HTU21D;15950;51.112;6.966;2023-11-19T05:39:24;12.26;93.37
26721;HTU21D;15950;51.112;6.966;2023-11-19T05:42:24;12.31;92.88
26721;HTU21D;15950;51.112;6.966;2023-11-19T05:45:24;12.15;92.85
26721;HTU21D;15950;51.112;6.966;2023-11-19T05:48:26;12.22;92.57
26721;HTU21D;15950;51.112;6.966;2023-11-19T05:51:24;12.23;92.30
26721;HTU21D;15950;51.112;6.966;2023-11-19T05:54:24;12.21;92.57
26721;HTU21D;15950;51.112;6.966;2023-11-19T05:57:24;12.30;92.07
26721;HTU21D;15950;51.112;6.966;2023-11-19T06:00:24;12.25;92.33
26721;HTU21D;15950;51.112;6.966;2023-11-19T06:03:24;12.23;92.52
26721;HTU21D;15950;51.112;6.966;2023-11-19T06:06:24;12.16;92.69
26721;HTU21D;15950;51.112;6.966;2023-11-19T06:09:24;12.14;92.47
26721;HTU21D;15950;51.112;6.966;2023-11-19T06:12:24;12.19;92.27
26721;HTU21D;15950;51.112;6.966;2023-11-19T06:15:24;12.09;92.45
26721;HTU21D;15950;51.112;6.966;2023-11-19T06:18:24;12.12;91.86
26721;HTU21D;15950;51.112;6.966;2023-11-19T06:21:24;12.03;91.62
26721;HTU21D;15950;51.112;6.966;2023-11-19T06:24:24;12.00;91.34
26721;HTU21D;15950;51.112;6.966;2023-11-19T06:27:24;12.05;91.08
26721;HTU21D;15950;51.112;6.966;2023-11-19T06:30:24;11.97;91.10
26721;HTU21D;15950;51.112;6.966;2023-11-19T06:33:24;11.91;91.05
26721;HTU21D;15950;51.112;6.966;2023-11-19T06:36:24;11.96;91.10
26721;HTU21D;15950;51.112;6.966;2023-11-19T06:39:24;11.89;90.69
26721;HTU21D;15950;51.112;6.966;2023-11-19T06:42:24;11.92;91.27
26721;HTU21D;15950;51.112;6.966;2023-11-19T06:45:24;11.88;91.04
26721;HTU21D;15950;51.112;6.966;2023-11-19T06:48:24;11.84;91.01
26721;HTU21D;15950;51.112;6.966;2023-11-19T06:51:24;11.77;91.02
26721;HTU21D;15950;51.112;6.966;2023-11-19T06:54:24;11.76;90.99
26721;HTU21D;15950;51.112;6.966;2023-11-19T06:57:24;11.67;90.65
26721;HTU21D;15950;51.112;6.966;2023-11-19T07:00:24;11.64;90.50
26721;HTU21D;15950;51.112;6.966;2023-11-19T07:03:24;11.71;89.63
26721;HTU21D;15950;51.112;6.966;2023-11-19T07:06:24;11.58;90.18
26721;HTU21D;15950;51.112;6.966;2023-11-19T07:09:24;11.64;90.23
26721;HTU21D;15950;51.112;6.966;2023-11-19T07:12:24;11.62;90.42
26721;HTU21D;15950;51.112;6.966;2023-11-19T07:15:24;11.57;90.06
26721;HTU21D;15950;51.112;6.966;2023-11-19T07:18:25;11.65;90.03
26721;HTU21D;15950;51.112;6.966;2023-11-19T07:21:24;11.60;90.24
26721;HTU21D;15950;51.112;6.966;2023-11-19T07:24:24;11.59;90.35
26721;HTU21D;15950;51.112;6.966;2023-11-19T07:27:24;11.60;90.01
26721;HTU21D;15950;51.112;6.966;2023-11-19T07:30:24;11.59;90.10
26721;HTU21D;15950;51.112;6.966;2023-11-19T07:33:24;11.61;89.47
26721;HTU21D;15950;51.112;6.966;2023-11-19T07:36:24;11.63;88.69
26721;HTU21D;15950;51.112;6.966;2023-11-19T07:39:24;11.57;88.79
26721;HTU21D;15950;51.112;6.966;2023-11-19T07:42:24;11.59;88.70
26721;HTU21D;15950;51.112;6.966;2023-11-19T07:45:24;11.61;88.86
26721;HTU21D;15950;51.112;6.966;2023-11-19T07:48:24;11.58;88.96
26721;HTU21D;15950;51.112;6.966;2023-11-19T07:51:24;11.61;88.99
26721;HTU21D;15950;51.112;6.966;2023-11-19T07:54:24;11.61;89.02
26721;HTU21D;15950;51.112;6.966;2023-11-19T07:57:24;11.63;88.81
26721;HTU21D;15950;51.112;6.966;2023-11-19T08:00:24;11.70;88.83
26721;HTU21D;15950;51.112;6.966;2023-11-19T08:03:24;11.71;88.98
26721;HTU21D;15950;51.112;6.966;2023-11-19T08:06:24;11.78;88.81
26721;HTU21D;15950;51.112;6.966;2023-11-19T08:09:26;11.73;88.38
26721;HTU21D;15950;51.112;6.966;2023-11-19T08:12:29;11.84;88.27
26721;HTU21D;15950;51.112;6.966;2023-11-19T08:15:29;11.83;88.13
26721;HTU21D;15950;51.112;6.966;2023-11-19T08:18:28;11.83;88.05
26721;HTU21D;15950;51.112;6.966;2023-11-19T08:21:24;11.95;87.98
26721;HTU21D;15950;51.112;6.966;2023-11-19T08:24:24;11.92;87.86
26721;HTU21D;15950;51.112;6.966;2023-11-19T08:27:24;11.97;87.95
26721;HTU21D;15950;51.112;6.966;2023-11-19T08:30:24;12.03;88.07
26721;HTU21D;15950;51.112;6.966;2023-11-19T08:33:24;12.11;87.98
26721;HTU21D;15950;51.112;6.966;2023-11-19T08:36:24;12.10;87.54
26721;HTU21D;15950;51.112;6.966;2023-11-19T08:39:24;12.19;87.18
26721;HTU21D;15950;51.112;6.966;2023-11-19T08:42:24;12.25;86.60
26721;HTU21D;15950;51.112;6.966;2023-11-19T08:45:25;12.29;86.37
26721;HTU21D;15950;51.112;6.966;2023-11-19T08:48:24;12.37;85.74
26721;HTU21D;15950;51.112;6.966;2023-11-19T08:51:25;12.40;84.92
26721;HTU21D;15950;51.112;6.966;2023-11-19T08:54:24;12.52;84.87
26721;HTU21D;15950;51.112;6.966;2023-11-19T08:57:24;12.54;84.69
26721;HTU21D;15950;51.112;6.966;2023-11-19T09:00:24;12.41;84.84
26721;HTU21D;15950;51.112;6.966;2023-11-19T09:03:24;12.50;84.73
26721;HTU21D;15950;51.112;6.966;2023-11-19T09:06:24;12.52;84.34
26721;HTU21D;15950;51.112;6.966;2023-11-19T09:09:24;12.70;84.48
26721;HTU21D;15950;51.112;6.966;2023-11-19T09:12:24;12.59;84.03
26721;HTU21D;15950;51.112;6.966;2023-11-19T09:15:24;12.59;83.49
26721;HTU21D;15950;51.112;6.966;2023-11-19T09:18:24;12.57;83.08
26721;HTU21D;15950;51.112;6.966;2023-11-19T09:21:24;12.56;83.55
26721;HTU21D;15950;51.112;6.966;2023-11-19T09:24:24;12.70;82.79
26721;HTU21D;15950;51.112;6.966;2023-11-19T09:27:24;12.58;83.23
26721;HTU21D;15950;51.112;6.966;2023-11-19T09:30:24;12.57;83.42
26721;HTU21D;15950;51.112;6.966;2023-11-19T09:33:24;12.49;84.03
26721;HTU21D;15950;51.112;6.966;2023-11-19T09:36:24;12.57;83.29
26721;HTU21D;15950;51.112;6.966;2023-11-19T09:39:24;12.55;83.35
26721;HTU21D;15950;51.112;6.966;2023-11-19T09:42:24;12.51;83.14
26721;HTU21D;15950;51.112;6.966;2023-11-19T09:45:27;12.62;82.83
26721;HTU21D;15950;51.112;6.966;2023-11-19T09:48:25;12.67;83.13
26721;HTU21D;15950;51.112;6.966;2023-11-19T09:51:24;12.66;82.78
26721;HTU21D;15950;51.112;6.966;2023-11-19T09:54:24;12.68;82.10
26721;HTU21D;15950;51.112;6.966;2023-11-19T09:57:24;12.72;81.63
26721;HTU21D;15950;51.112;6.966;2023-11-19T10:00:24;12.77;81.62
26721;HTU21D;15950;51.112;6.966;2023-11-19T10:03:25;12.85;81.50
26721;HTU21D;15950;51.112;6.966;2023-11-19T10:06:25;12.92;80.97
26721;HTU21D;15950;51.112;6.966;2023-11-19T10:09:24;12.97;80.88
26721;HTU21D;15950;51.112;6.966;2023-11-19T10:12:24;12.99;80.61
26721;HTU21D;15950;51.112;6.966;2023-11-19T10:15:25;13.04;80.33
26721;HTU21D;15950;51.112;6.966;2023-11-19T10:18:25;13.10;79.49
26721;HTU21D;15950;51.112;6.966;2023-11-19T10:21:24;13.37;79.71
26721;HTU21D;15950;51.112;6.966;2023-11-19T10:24:32;13.25;78.92
26721;HTU21D;15950;51.112;6.966;2023-11-19T10:27:24;13.54;78.68
26721;HTU21D;15950;51.112;6.966;2023-11-19T10:30:25;13.56;78.83
26721;HTU21D;15950;51.112;6.966;2023-11-19T10:33:29;13.46;78.59
26721;HTU21D;15950;51.112;6.966;2023-11-19T10:39:33;13.22;78.72
26721;HTU21D;15950;51.112;6.966;2023-11-19T10:42:24;13.22;78.42
26721;HTU21D;15950;51.112;6.966;2023-11-19T10:45:24;13.34;78.66
26721;HTU21D;15950;51.112;6.966;2023-11-19T10:48:24;13.22;78.43
26721;HTU21D;15950;51.112;6.966;2023-11-19T10:51:24;13.16;78.14
26721;HTU21D;15950;51.112;6.966;2023-11-19T10:54:24;13.28;77.72
26721;HTU21D;15950;51.112;6.966;2023-11-19T10:57:26;13.27;78.28
26721;HTU21D;15950;51.112;6.966;2023-11-19T11:00:25;13.23;78.43
26721;HTU21D;15950;51.112;6.966;2023-11-19T11:03:25;13.22;78.44
26721;HTU21D;15950;51.112;6.966;2023-11-19T11:06:24;13.24;77.62
26721;HTU21D;15950;51.112;6.966;2023-11-19T11:09:26;13.11;77.47
26721;HTU21D;15950;51.112;6.966;2023-11-19T11:12:25;13.19;77.11
26721;HTU21D;15950;51.112;6.966;2023-11-19T11:15:27;13.16;77.10
26721;HTU21D;15950;51.112;6.966;2023-11-19T11:18:24;13.12;77.34
26721;HTU21D;15950;51.112;6.966;2023-11-19T11:21:26;13.14;77.36
26721;HTU21D;15950;51.112;6.966;2023-11-19T11:27:34;13.15;79.07
26721;HTU21D;15950;51.112;6.966;2023-11-19T11:30:35;12.92;79.15
26721;HTU21D;15950;51.112;6.966;2023-11-19T11:33:34;12.96;78.56
26721;HTU21D;15950;51.112;6.966;2023-11-19T11:36:25;13.17;78.48
26721;HTU21D;15950;51.112;6.966;2023-11-19T11:39:26;13.28;78.41
26721;HTU21D;15950;51.112;6.966;2023-11-19T11:48:24;13.29;77.43
26721;HTU21D;15950;51.112;6.966;2023-11-19T11:57:29;13.44;77.65
26721;HTU21D;15950;51.112;6.966;2023-11-19T12:03:26;13.60;76.90
26721;HTU21D;15950;51.112;6.966;2023-11-19T12:06:24;13.68;76.29
26721;HTU21D;15950;51.112;6.966;2023-11-19T12:09:24;13.60;75.31
26721;HTU21D;15950;51.112;6.966;2023-11-19T12:12:27;13.51;75.25
26721;HTU21D;15950;51.112;6.966;2023-11-19T12:15:24;13.46;75.39
26721;HTU21D;15950;51.112;6.966;2023-11-19T12:18:31;13.41;75.30
26721;HTU21D;15950;51.112;6.966;2023-11-19T12:21:29;13.35;75.24
26721;HTU21D;15950;51.112;6.966;2023-11-19T12:24:24;13.34;75.19
26721;HTU21D;15950;51.112;6.966;2023-11-19T12:27:24;13.42;75.41
26721;HTU21D;15950;51.112;6.966;2023-11-19T12:30:25;13.53;75.74
26721;HTU21D;15950;51.112;6.966;2023-11-19T12:33:24;13.51;75.34
26721;HTU21D;15950;51.112;6.966;2023-11-19T12:36:24;13.47;75.44
26721;HTU21D;15950;51.112;6.966;2023-11-19T12:39:24;13.46;75.63
26721;HTU21D;15950;51.112;6.966;2023-11-19T12:45:24;13.31;76.08
26721;HTU21D;15950;51.112;6.966;2023-11-19T12:48:24;13.31;76.15
26721;HTU21D;15950;51.112;6.966;2023-11-19T12:51:31;13.28;76.52
26721;HTU21D;15950;51.112;6.966;2023-11-19T13:00:26;13.35;77.34
26721;HTU21D;15950;51.112;6.966;2023-11-19T13:03:32;13.34;77.47
26721;HTU21D;15950;51.112;6.966;2023-11-19T13:06:24;13.29;77.25
26721;HTU21D;15950;51.112;6.966;2023-11-19T13:09:28;13.48;77.30
26721;HTU21D;15950;51.112;6.966;2023-11-19T13:12:24;13.53;76.97
26721;HTU21D;15950;51.112;6.966;2023-11-19T13:15:24;13.53;76.76
26721;HTU21D;15950;51.112;6.966;2023-11-19T13:18:24;13.59;76.52
26721;HTU21D;15950;51.112;6.966;2023-11-19T13:21:24;13.61;75.90
26721;HTU21D;15950;51.112;6.966;2023-11-19T13:24:24;13.59;76.08
26721;HTU21D;15950;51.112;6.966;2023-11-19T13:27:24;13.54;76.34
26721;HTU21D;15950;51.112;6.966;2023-11-19T13:30:25;13.67;76.79
26721;HTU21D;15950;51.112;6.966;2023-11-19T13:33:24;13.59;76.98
26721;HTU21D;15950;51.112;6.966;2023-11-19T13:36:24;13.49;76.99
26721;HTU21D;15950;51.112;6.966;2023-11-19T13:39:24;13.53;76.96
26721;HTU21D;15950;51.112;6.966;2023-11-19T13:42:24;13.48;77.22
26721;HTU21D;15950;51.112;6.966;2023-11-19T13:45:24;13.52;77.40
26721;HTU21D;15950;51.112;6.966;2023-11-19T13:48:24;13.42;77.09
26721;HTU21D;15950;51.112;6.966;2023-11-19T13:51:24;13.37;77.72
26721;HTU21D;15950;51.112;6.966;2023-11-19T13:54:24;13.45;77.64
26721;HTU21D;15950;51.112;6.966;2023-11-19T13:57:24;13.33;78.04
26721;HTU21D;15950;51.112;6.966;2023-11-19T14:00:24;13.32;77.93
26721;HTU21D;15950;51.112;6.966;2023-11-19T14:03:24;13.34;78.00
26721;HTU21D;15950;51.112;6.966;2023-11-19T14:06:24;13.26;78.09
26721;HTU21D;15950;51.112;6.966;2023-11-19T14:09:24;13.27;77.85
26721;HTU21D;15950;51.112;6.966;2023-11-19T14:12:24;13.24;77.83
26721;HTU21D;15950;51.112;6.966;2023-11-19T14:15:24;13.24;77.76
26721;HTU21D;15950;51.112;6.966;2023-11-19T14:18:24;13.14;77.63
26721;HTU21D;15950;51.112;6.966;2023-11-19T14:21:24;13.16;77.83
26721;HTU21D;15950;51.112;6.966;2023-11-19T14:24:24;13.09;77.91
26721;HTU21D;15950;51.112;6.966;2023-11-19T14:27:24;13.00;78.91
26721;HTU21D;15950;51.112;6.966;2023-11-19T14:30:24;12.99;79.20
26721;HTU21D;15950;51.112;6.966;2023-11-19T14:33:24;13.00;79.10
26721;HTU21D;15950;51.112;6.966;2023-11-19T14:36:24;13.02;79.23
26721;HTU21D;15950;51.112;6.966;2023-11-19T14:39:24;13.03;80.84
26721;HTU21D;15950;51.112;6.966;2023-11-19T14:42:24;12.83;82.12
26721;HTU21D;15950;51.112;6.966;2023-11-19T14:45:24;12.78;82.33
26721;HTU21D;15950;51.112;6.966;2023-11-19T14:48:24;12.72;82.23
26721;HTU21D;15950;51.112;6.966;2023-11-19T14:51:24;12.77;82.25
26721;HTU21D;15950;51.112;6.966;2023-11-19T14:54:24;12.78;82.44
26721;HTU21D;15950;51.112;6.966;2023-11-19T14:57:24;12.75;81.04
26721;HTU21D;15950;51.112;6.966;2023-11-19T15:00:24;12.85;79.66
26721;HTU21D;15950;51.112;6.966;2023-11-19T15:03:24;12.87;79.63
26721;HTU21D;15950;51.112;6.966;2023-11-19T15:06:24;12.81;79.03
26721;HTU21D;15950;51.112;6.966;2023-11-19T15:09:24;12.86;78.55
26721;HTU21D;15950;51.112;6.966;2023-11-19T15:12:24;12.75;78.86
26721;HTU21D;15950;51.112;6.966;2023-11-19T15:15:24;12.73;78.79
26721;HTU21D;15950;51.112;6.966;2023-11-19T15:18:24;12.69;79.27
26721;HTU21D;15950;51.112;6.966;2023-11-19T15:21:24;12.68;80.63
26721;HTU21D;15950;51.112;6.966;2023-11-19T15:24:24;12.53;82.01
26721;HTU21D;15950;51.112;6.966;2023-11-19T15:27:24;12.58;82.99
26721;HTU21D;15950;51.112;6.966;2023-11-19T15:30:24;12.40;84.00
26721;HTU21D;15950;51.112;6.966;2023-11-19T15:33:24;12.21;86.06
26721;HTU21D;15950;51.112;6.966;2023-11-19T15:36:24;12.21;86.35
26721;HTU21D;15950;51.112;6.966;2023-11-19T15:39:24;12.22;86.38
26721;HTU21D;15950;51.112;6.966;2023-11-19T15:42:24;12.15;86.66
26721;HTU21D;15950;51.112;6.966;2023-11-19T15:45:24;12.00;86.43
26721;HTU21D;15950;51.112;6.966;2023-11-19T15:48:24;12.02;86.20
26721;HTU21D;15950;51.112;6.966;2023-11-19T15:51:24;12.07;85.91
26721;HTU21D;15950;51.112;6.966;2023-11-19T15:54:24;12.10;85.89
26721;HTU21D;15950;51.112;6.966;2023-11-19T15:57:24;12.13;86.06
26721;HTU21D;15950;51.112;6.966;2023-11-19T16:00:24;12.11;85.64
26721;HTU21D;15950;51.112;6.966;2023-11-19T16:03:24;12.13;85.16
26721;HTU21D;15950;51.112;6.966;2023-11-19T16:06:24;12.09;84.90
26721;HTU21D;15950;51.112;6.966;2023-11-19T16:09:24;12.05;84.82
26721;HTU21D;15950;51.112;6.966;2023-11-19T16:12:24;12.09;84.65
26721;HTU21D;15950;51.112;6.966;2023-11-19T16:15:24;12.19;84.25
26721;HTU21D;15950;51.112;6.966;2023-11-19T16:18:24;12.30;83.42
26721;HTU21D;15950;51.112;6.966;2023-11-19T16:21:24;12.23;84.17
26721;HTU21D;15950;51.112;6.966;2023-11-19T16:24:24;12.24;84.81
26721;HTU21D;15950;51.112;6.966;2023-11-19T16:27:24;11.99;86.03
26721;HTU21D;15950;51.112;6.966;2023-11-19T16:30:24;12.06;86.83
26721;HTU21D;15950;51.112;6.966;2023-11-19T16:33:24;12.01;86.93
26721;HTU21D;15950;51.112;6.966;2023-11-19T16:36:24;11.99;86.55
26721;HTU21D;15950;51.112;6.966;2023-11-19T16:39:24;11.99;87.19
26721;HTU21D;15950;51.112;6.966;2023-11-19T16:42:24;11.96;86.54
26721;HTU21D;15950;51.112;6.966;2023-11-19T16:45:24;11.93;86.81
26721;HTU21D;15950;51.112;6.966;2023-11-19T16:48:24;11.91;86.32
26721;HTU21D;15950;51.112;6.966;2023-11-19T16:51:24;11.95;86.27
26721;HTU21D;15950;51.112;6.966;2023-11-19T16:54:24;11.97;86.27
26721;HTU21D;15950;51.112;6.966;2023-11-19T16:57:24;11.95;86.03
26721;HTU21D;15950;51.112;6.966;2023-11-19T17:00:24;12.01;85.62
26721;HTU21D;15950;51.112;6.966;2023-11-19T17:03:24;11.89;85.75
26721;HTU21D;15950;51.112;6.966;2023-11-19T17:06:24;12.01;85.08
26721;HTU21D;15950;51.112;6.966;2023-11-19T17:09:24;11.97;84.67
26721;HTU21D;15950;51.112;6.966;2023-11-19T17:12:24;11.96;84.38
26721;HTU21D;15950;51.112;6.966;2023-11-19T17:15:24;12.10;83.80
26721;HTU21D;15950;51.112;6.966;2023-11-19T17:18:24;12.04;83.51
26721;HTU21D;15950;51.112;6.966;2023-11-19T17:21:24;12.05;82.75
26721;HTU21D;15950;51.112;6.966;2023-11-19T17:24:24;12.08;82.97
26721;HTU21D;15950;51.112;6.966;2023-11-19T17:27:23;12.16;82.05
26721;HTU21D;15950;51.112;6.966;2023-11-19T17:30:23;12.06;82.70
26721;HTU21D;15950;51.112;6.966;2023-11-19T17:33:23;12.09;83.14
26721;HTU21D;15950;51.112;6.966;2023-11-19T17:36:23;12.15;83.12
26721;HTU21D;15950;51.112;6.966;2023-11-19T17:39:23;12.05;83.05
26721;HTU21D;15950;51.112;6.966;2023-11-19T17:42:23;12.07;82.58
26721;HTU21D;15950;51.112;6.966;2023-11-19T17:45:23;12.17;82.07
26721;HTU21D;15950;51.112;6.966;2023-11-19T17:48:23;12.15;81.76
26721;HTU21D;15950;51.112;6.966;2023-11-19T17:51:23;12.19;81.17
26721;HTU21D;15950;51.112;6.966;2023-11-19T17:54:24;12.24;80.68
26721;HTU21D;15950;51.112;6.966;2023-11-19T17:57:23;12.19;81.46
26721;HTU21D;15950;51.112;6.966;2023-11-19T18:00:23;12.15;81.52
26721;HTU21D;15950;51.112;6.966;2023-11-19T18:03:24;12.22;81.22
26721;HTU21D;15950;51.112;6.966;2023-11-19T18:06:23;12.21;80.75
26721;HTU21D;15950;51.112;6.966;2023-11-19T18:09:23;12.23;81.22
26721;HTU21D;15950;51.112;6.966;2023-11-19T18:12:23;12.21;81.18
26721;HTU21D;15950;51.112;6.966;2023-11-19T18:15:23;12.10;81.49
26721;HTU21D;15950;51.112;6.966;2023-11-19T18:18:23;12.15;80.94
26721;HTU21D;15950;51.112;6.966;2023-11-19T18:21:23;12.19;80.64
26721;HTU21D;15950;51.112;6.966;2023-11-19T18:24:24;12.17;80.98
26721;HTU21D;15950;51.112;6.966;2023-11-19T18:27:24;12.16;80.94
26721;HTU21D;15950;51.112;6.966;2023-11-19T18:30:24;12.13;80.53
26721;HTU21D;15950;51.112;6.966;2023-11-19T18:33:23;12.13;80.85
26721;HTU21D;15950;51.112;6.966;2023-11-19T18:36:23;12.10;81.46
26721;HTU21D;15950;51.112;6.966;2023-11-19T18:39:23;12.15;82.73
26721;HTU21D;15950;51.112;6.966;2023-11-19T18:42:23;12.09;83.52
26721;HTU21D;15950;51.112;6.966;2023-11-19T18:45:23;12.02;84.25
26721;HTU21D;15950;51.112;6.966;2023-11-19T18:48:23;12.09;84.15
26721;HTU21D;15950;51.112;6.966;2023-11-19T18:51:24;12.06;84.37
26721;HTU21D;15950;51.112;6.966;2023-11-19T18:54:24;12.05;84.48
26721;HTU21D;15950;51.112;6.966;2023-11-19T18:57:24;12.01;84.62
26721;HTU21D;15950;51.112;6.966;2023-11-19T19:00:23;11.92;84.45
26721;HTU21D;15950;51.112;6.966;2023-11-19T19:03:23;11.99;84.52
26721;HTU21D;15950;51.112;6.966;2023-11-19T19:06:23;11.96;84.42
26721;HTU21D;15950;51.112;6.966;2023-11-19T19:09:23;11.91;84.64